Time;durP1;ratioP1;P1;durP2;ratioP2;P2;SDS_P1;SDS_P2;PMS_P1;PMS_P2;Temp;Humidity;BMP_temperature;BMP_pressure;BME280_temperature;BME280_humidity;BME280_pressure;Samples;Min_cycle;Max_cycle;Signal;HPM_P1;HPM_P2
2022/12/03 00:00:51;;;;;;;13.77;6.07;;;5.70;99.90;;;;;;5024952;28;20489;-82
2022/12/03 00:03:16;;;;;;;16.53;6.97;;;5.70;99.90;;;;;;5026883;28;21305;-83
2022/12/03 00:05:42;;;;;;;17.17;7.95;;;5.70;99.90;;;;;;5023524;28;20111;-82
2022/12/03 00:08:07;;;;;;;15.77;6.93;;;5.70;99.90;;;;;;5016400;28;20021;-82
2022/12/03 00:10:33;;;;;;;13.48;6.30;;;5.70;99.90;;;;;;5015216;28;20028;-84
2022/12/03 00:12:59;;;;;;;16.67;7.27;;;5.70;99.90;;;;;;5010814;28;20239;-82
2022/12/03 00:15:24;;;;;;;16.20;7.83;;;5.70;99.90;;;;;;5033246;28;20022;-82
2022/12/03 00:17:50;;;;;;;13.32;5.88;;;5.70;99.90;;;;;;5017238;28;20017;-83
2022/12/03 00:20:18;;;;;;;18.63;7.60;;;5.70;99.90;;;;;;5017766;28;20135;-82
2022/12/03 00:22:44;;;;;;;15.85;7.03;;;5.70;99.90;;;;;;5050154;28;20394;-82
2022/12/03 00:25:10;;;;;;;13.93;6.30;;;5.70;99.90;;;;;;5036176;28;20258;-82
2022/12/03 00:27:35;;;;;;;11.68;5.38;;;5.70;99.90;;;;;;5027712;28;20035;-81
2022/12/03 00:30:01;;;;;;;13.77;5.67;;;5.70;99.90;;;;;;5015386;28;20262;-82
2022/12/03 00:32:27;;;;;;;15.40;6.93;;;5.70;99.90;;;;;;5028607;28;20048;-83
2022/12/03 00:34:52;;;;;;;17.53;7.70;;;5.60;99.90;;;;;;5021527;28;20021;-83
2022/12/03 00:37:18;;;;;;;18.65;8.35;;;5.60;99.90;;;;;;5045863;28;20655;-83
2022/12/03 00:39:44;;;;;;;15.47;6.83;;;5.60;99.90;;;;;;5060019;28;20426;-81
2022/12/03 00:42:09;;;;;;;14.27;6.10;;;5.60;99.90;;;;;;5035460;28;20040;-82
2022/12/03 00:44:35;;;;;;;17.07;7.50;;;5.60;99.90;;;;;;5023091;28;20804;-82
2022/12/03 00:47:00;;;;;;;16.33;7.27;;;5.60;99.90;;;;;;5033603;28;20115;-82
2022/12/03 00:49:26;;;;;;;14.45;6.40;;;5.60;99.90;;;;;;5050553;28;20029;-82
2022/12/03 00:51:52;;;;;;;14.77;6.80;;;5.60;99.90;;;;;;5027306;28;20033;-82
2022/12/03 00:54:17;;;;;;;15.45;6.45;;;5.60;99.90;;;;;;5013444;28;20033;-82
2022/12/03 00:56:43;;;;;;;14.33;6.13;;;5.60;99.90;;;;;;5018655;28;20600;-82
2022/12/03 00:59:09;;;;;;;16.77;7.00;;;5.60;99.90;;;;;;5005091;28;20934;-83
2022/12/03 01:01:34;;;;;;;17.38;7.55;;;5.60;99.90;;;;;;5012990;28;20033;-84
2022/12/03 01:04:00;;;;;;;16.83;7.33;;;5.60;99.90;;;;;;5016345;28;20325;-82
2022/12/03 01:06:25;;;;;;;16.25;6.75;;;5.60;99.90;;;;;;5002758;28;20112;-82
2022/12/03 01:08:51;;;;;;;14.60;7.03;;;5.60;99.90;;;;;;5031707;28;20052;-82
2022/12/03 01:14:01;;;;;;;13.00;5.57;;;5.60;99.90;;;;;;5048903;28;20504;-85
2022/12/03 01:16:26;;;;;;;15.45;5.95;;;5.60;99.90;;;;;;4995888;28;20108;-82
2022/12/03 01:18:52;;;;;;;14.93;6.70;;;5.60;99.90;;;;;;5020259;28;20033;-82
2022/12/03 01:21:18;;;;;;;15.05;6.32;;;5.60;99.90;;;;;;5019360;28;20505;-82
2022/12/03 01:23:44;;;;;;;15.67;7.07;;;5.50;99.90;;;;;;5043224;28;20131;-83
2022/12/03 01:26:09;;;;;;;15.57;6.75;;;5.60;99.90;;;;;;5027409;28;20021;-83
2022/12/03 01:28:35;;;;;;;17.07;6.30;;;5.50;99.90;;;;;;5028818;28;20636;-82
2022/12/03 01:33:45;;;;;;;14.00;6.13;;;5.50;99.90;;;;;;5028012;28;20074;-82
2022/12/03 01:36:10;;;;;;;13.45;5.50;;;5.60;99.90;;;;;;5004015;28;20444;-82
2022/12/03 01:38:36;;;;;;;14.73;6.57;;;5.50;99.90;;;;;;5042520;28;20563;-82
2022/12/03 01:41:02;;;;;;;12.68;5.72;;;5.50;99.90;;;;;;5031426;28;20029;-83
2022/12/03 01:43:27;;;;;;;14.97;6.90;;;5.60;99.90;;;;;;5038588;28;20399;-82
2022/12/03 01:45:53;;;;;;;15.23;6.35;;;5.60;99.90;;;;;;4998200;28;20016;-82
2022/12/03 01:48:19;;;;;;;11.97;5.23;;;5.60;99.90;;;;;;5025958;28;20033;-82
2022/12/03 01:50:45;;;;;;;15.02;6.75;;;5.60;99.90;;;;;;5000538;28;20036;-82
2022/12/03 01:53:14;;;;;;;12.05;5.13;;;5.60;99.90;;;;;;5026077;28;20626;-82
2022/12/03 01:55:42;;;;;;;14.20;6.10;;;5.60;99.90;;;;;;5029108;28;20134;-84
2022/12/03 01:58:11;;;;;;;12.43;5.97;;;5.50;99.90;;;;;;5029865;28;20163;-82
2022/12/03 02:00:37;;;;;;;13.43;5.82;;;5.50;99.90;;;;;;5015078;28;20030;-82
2022/12/03 02:03:14;;;;;;;13.70;5.82;;;5.60;99.90;;;;;;5020216;28;20079;-82
2022/12/03 02:05:40;;;;;;;14.90;6.25;;;5.60;99.90;;;;;;5035422;28;20561;-82
2022/12/03 02:08:34;;;;;;;14.90;5.90;;;5.60;99.90;;;;;;5027095;28;20276;-82
2022/12/03 02:11:15;;;;;;;11.50;5.50;;;5.60;99.90;;;;;;5032157;28;20028;-82
2022/12/03 02:13:42;;;;;;;13.68;6.18;;;5.60;99.90;;;;;;5042279;28;20022;-82
2022/12/03 02:16:08;;;;;;;11.57;5.30;;;5.60;99.90;;;;;;5042900;28;20021;-83
2022/12/03 02:18:34;;;;;;;13.10;6.13;;;5.60;99.90;;;;;;5006111;28;20349;-82
2022/12/03 02:21:14;;;;;;;10.67;4.73;;;5.60;99.90;;;;;;5002805;28;20642;-81
2022/12/03 02:24:00;;;;;;;13.77;6.00;;;5.60;99.90;;;;;;5030936;28;20059;-82
2022/12/03 02:26:26;;;;;;;15.60;6.28;;;5.60;99.90;;;;;;5036501;28;20028;-82
2022/12/03 02:28:52;;;;;;;14.33;6.40;;;5.60;99.90;;;;;;5025289;28;20593;-83
2022/12/03 02:31:18;;;;;;;11.77;4.85;;;5.60;99.90;;;;;;5035325;28;20021;-82
2022/12/03 02:33:44;;;;;;;12.27;5.60;;;5.50;99.90;;;;;;5000236;28;20415;-82
2022/12/03 02:36:10;;;;;;;12.15;5.38;;;5.60;99.90;;;;;;5027391;28;20502;-82
2022/12/03 02:38:36;;;;;;;13.15;6.00;;;5.60;99.90;;;;;;5007648;28;20108;-82
2022/12/03 02:41:06;;;;;;;13.68;6.03;;;5.60;99.90;;;;;;5007597;28;20220;-82
2022/12/03 02:43:32;;;;;;;14.03;5.87;;;5.60;99.90;;;;;;5014711;28;20573;-82
2022/12/03 02:46:00;;;;;;;14.90;6.30;;;5.60;99.90;;;;;;5033221;28;20029;-82
2022/12/03 02:48:33;;;;;;;16.88;7.03;;;5.60;99.90;;;;;;5004397;28;20783;-82
2022/12/03 02:51:04;;;;;;;12.27;5.22;;;5.50;99.90;;;;;;5029135;28;20701;-82
2022/12/03 02:53:36;;;;;;;13.23;5.80;;;5.50;99.90;;;;;;4999738;28;20680;-82
2022/12/03 02:56:03;;;;;;;14.10;5.75;;;5.50;99.90;;;;;;5025470;28;20041;-82
2022/12/03 02:58:31;;;;;;;13.13;5.97;;;5.60;99.90;;;;;;5018303;28;20463;-82
2022/12/03 03:00:59;;;;;;;12.93;5.63;;;5.60;99.90;;;;;;5043863;28;20634;-82
2022/12/03 03:03:27;;;;;;;15.18;6.10;;;5.60;99.90;;;;;;5023773;28;20698;-82
2022/12/03 03:05:55;;;;;;;14.37;6.23;;;5.60;99.90;;;;;;5021582;28;20033;-83
2022/12/03 03:08:21;;;;;;;14.80;6.38;;;5.60;99.90;;;;;;5007595;28;20329;-82
2022/12/03 03:10:48;;;;;;;11.32;5.43;;;5.60;99.90;;;;;;5041748;28;20596;-83
2022/12/03 03:13:17;;;;;;;13.70;5.93;;;5.60;99.90;;;;;;5053619;28;20499;-83
2022/12/03 03:15:43;;;;;;;14.27;6.10;;;5.50;99.90;;;;;;5012241;28;20037;-82
2022/12/03 03:18:11;;;;;;;13.93;5.80;;;5.50;99.90;;;;;;5028037;28;20033;-82
2022/12/03 03:20:37;;;;;;;14.90;6.95;;;5.50;99.90;;;;;;5021843;28;20866;-83
2022/12/03 03:23:09;;;;;;;12.98;6.45;;;5.50;99.90;;;;;;5016232;28;20084;-82
2022/12/03 03:25:35;;;;;;;14.07;6.18;;;5.50;99.90;;;;;;5016313;28;22391;-81
2022/12/03 03:28:01;;;;;;;13.10;5.60;;;5.50;99.90;;;;;;5031298;28;20029;-83
2022/12/03 03:30:27;;;;;;;12.50;6.15;;;5.50;99.90;;;;;;5029188;28;20319;-82
2022/12/03 03:32:52;;;;;;;14.25;6.07;;;5.40;99.90;;;;;;5029354;28;20023;-82
2022/12/03 03:35:18;;;;;;;14.77;6.40;;;5.50;99.90;;;;;;5044049;28;20025;-82
2022/12/03 03:37:44;;;;;;;14.70;6.38;;;5.40;99.90;;;;;;4990440;28;20110;-82
2022/12/03 03:40:10;;;;;;;15.33;6.43;;;5.40;99.90;;;;;;5018322;28;20386;-82
2022/12/03 03:42:37;;;;;;;11.73;5.10;;;5.40;99.90;;;;;;5029554;28;20472;-82
2022/12/03 03:45:05;;;;;;;13.70;5.85;;;5.40;99.90;;;;;;5047119;28;20466;-82
2022/12/03 03:47:31;;;;;;;14.23;5.97;;;5.40;99.90;;;;;;5048790;28;20021;-84
2022/12/03 03:49:57;;;;;;;13.80;6.33;;;5.40;99.90;;;;;;5019463;28;20517;-82
2022/12/03 03:52:23;;;;;;;12.45;5.50;;;5.40;99.90;;;;;;5009993;28;20040;-82
2022/12/03 03:54:48;;;;;;;12.57;5.75;;;5.40;99.90;;;;;;5005342;28;20599;-83
2022/12/03 03:57:14;;;;;;;15.67;6.60;;;5.40;99.90;;;;;;5045361;28;20029;-82
2022/12/03 03:59:40;;;;;;;15.75;6.68;;;5.50;99.90;;;;;;5050760;28;20095;-82
2022/12/03 04:02:05;;;;;;;15.43;6.23;;;5.50;99.90;;;;;;5045748;28;20041;-82
2022/12/03 04:04:35;;;;;;;15.65;6.82;;;5.50;99.90;;;;;;5020735;28;20509;-82
2022/12/03 04:07:01;;;;;;;13.32;6.00;;;5.50;99.90;;;;;;4995969;28;20022;-82
2022/12/03 04:09:27;;;;;;;13.90;5.77;;;5.50;99.90;;;;;;5021198;28;20568;-82
2022/12/03 04:14:36;;;;;;;17.75;7.22;;;5.50;99.90;;;;;;5029507;28;20036;-82
2022/12/03 04:17:02;;;;;;;14.50;6.40;;;5.50;99.90;;;;;;5015713;28;20024;-82
2022/12/03 04:19:28;;;;;;;15.70;6.87;;;5.50;99.90;;;;;;5019398;28;20030;-82
2022/12/03 04:24:37;;;;;;;15.05;6.45;;;5.50;99.90;;;;;;5024830;28;20025;-83
2022/12/03 04:29:47;;;;;;;9.90;4.60;;;5.50;99.90;;;;;;5033602;28;20679;-82
2022/12/03 04:37:41;;;;;;;12.87;5.30;;;5.50;99.90;;;;;;5035372;28;20033;-82
2022/12/03 04:40:59;;;;;;;11.98;5.28;;;5.50;99.90;;;;;;5011971;28;21043;-82
2022/12/03 04:42:53;;;;;;;12.38;5.80;;;5.50;99.90;;;;;;5026817;28;20621;-82
2022/12/03 04:45:18;;;;;;;12.00;5.63;;;5.50;99.90;;;;;;5026151;28;20100;-82
2022/12/03 04:47:44;;;;;;;14.20;5.73;;;5.50;99.90;;;;;;5060551;28;20029;-82
2022/12/03 04:50:10;;;;;;;10.90;4.88;;;5.50;99.90;;;;;;5017999;28;20094;-82
2022/12/03 04:52:36;;;;;;;15.43;7.00;;;5.50;99.90;;;;;;5027895;28;20086;-83
2022/12/03 04:55:01;;;;;;;13.85;5.80;;;5.50;99.90;;;;;;4998899;28;20971;-83
2022/12/03 04:57:27;;;;;;;12.63;5.70;;;5.50;99.90;;;;;;5054665;28;20518;-82
2022/12/03 04:59:52;;;;;;;14.93;6.60;;;5.40;99.90;;;;;;5028882;28;20120;-82
2022/12/03 05:02:18;;;;;;;13.43;6.27;;;5.40;99.90;;;;;;5038772;28;20025;-82
2022/12/03 05:04:44;;;;;;;13.20;5.60;;;5.50;99.90;;;;;;5043922;28;20075;-82
2022/12/03 05:07:09;;;;;;;15.32;6.30;;;5.50;99.90;;;;;;5020913;28;20134;-82
2022/12/03 05:09:35;;;;;;;12.80;6.17;;;5.40;99.90;;;;;;4994229;28;20018;-82
2022/12/03 05:12:00;;;;;;;13.52;5.78;;;5.40;99.90;;;;;;5033881;28;20102;-82
2022/12/03 05:14:26;;;;;;;12.30;5.47;;;5.40;99.90;;;;;;5030195;28;20029;-81
2022/12/03 05:16:52;;;;;;;12.60;5.60;;;5.40;99.90;;;;;;5015026;28;20017;-82
2022/12/03 05:19:17;;;;;;;15.52;6.60;;;5.40;99.90;;;;;;5039075;28;20031;-82
2022/12/03 05:21:43;;;;;;;17.93;7.13;;;5.40;99.90;;;;;;5041351;28;20025;-82
2022/12/03 05:24:08;;;;;;;17.92;7.97;;;5.40;99.90;;;;;;5037098;28;20596;-83
2022/12/03 05:26:34;;;;;;;13.87;6.00;;;5.40;99.90;;;;;;5016805;28;20112;-82
2022/12/03 05:29:00;;;;;;;15.57;6.43;;;5.40;99.90;;;;;;5025037;28;20072;-82
2022/12/03 05:31:25;;;;;;;14.68;6.53;;;5.40;99.90;;;;;;5053697;28;20159;-83
2022/12/03 05:33:51;;;;;;;15.13;6.83;;;5.40;99.90;;;;;;5033474;28;20064;-82
2022/12/03 05:36:17;;;;;;;14.40;6.32;;;5.40;99.90;;;;;;5028268;28;20477;-82
2022/12/03 05:38:43;;;;;;;14.20;6.30;;;5.40;99.90;;;;;;5027991;28;20042;-82
2022/12/03 05:43:52;;;;;;;16.65;7.22;;;5.40;99.90;;;;;;5042719;28;20653;-82
2022/12/03 05:46:18;;;;;;;17.67;7.27;;;5.40;99.90;;;;;;5020234;28;20021;-82
2022/12/03 05:48:44;;;;;;;14.75;6.28;;;5.40;99.90;;;;;;5015863;28;20489;-82
2022/12/03 05:51:10;;;;;;;14.70;5.87;;;5.40;99.90;;;;;;5030327;28;20619;-82
2022/12/03 05:53:35;;;;;;;14.23;6.00;;;5.40;99.90;;;;;;5029016;28;20029;-82
2022/12/03 05:56:01;;;;;;;14.37;6.13;;;5.40;99.90;;;;;;4992485;28;20304;-82
2022/12/03 05:58:26;;;;;;;16.02;6.28;;;5.40;99.90;;;;;;5032570;28;20033;-82
2022/12/03 06:00:52;;;;;;;13.77;5.80;;;5.40;99.90;;;;;;5022889;28;20036;-84
2022/12/03 06:03:18;;;;;;;14.50;6.67;;;5.40;99.90;;;;;;5011540;28;20017;-85
2022/12/03 06:05:43;;;;;;;16.52;6.90;;;5.50;99.90;;;;;;5046454;28;20040;-84
2022/12/03 06:08:09;;;;;;;11.20;5.20;;;5.50;99.90;;;;;;5011499;28;20104;-84
2022/12/03 06:10:35;;;;;;;14.35;6.38;;;5.50;99.90;;;;;;5022047;28;20026;-85
2022/12/03 06:13:02;;;;;;;15.77;6.60;;;5.50;99.90;;;;;;4988412;28;20021;-84
2022/12/03 06:15:27;;;;;;;14.02;5.88;;;5.50;99.90;;;;;;5011684;28;20067;-84
2022/12/03 06:17:53;;;;;;;17.37;6.47;;;5.50;99.90;;;;;;5028265;28;20803;-85
2022/12/03 06:20:19;;;;;;;17.52;7.03;;;5.40;99.90;;;;;;5042741;28;20052;-85
2022/12/03 06:22:46;;;;;;;16.88;6.80;;;5.50;99.90;;;;;;4996116;28;20179;-84
2022/12/03 06:25:12;;;;;;;14.70;6.33;;;5.50;99.90;;;;;;5013091;28;20029;-84
2022/12/03 06:27:38;;;;;;;13.95;5.53;;;5.50;99.90;;;;;;4966634;28;20843;-84
2022/12/03 06:30:07;;;;;;;16.85;6.40;;;5.50;99.90;;;;;;5027541;28;20375;-84
2022/12/03 06:32:32;;;;;;;13.25;6.28;;;5.50;99.90;;;;;;5042109;28;20352;-85
2022/12/03 06:34:58;;;;;;;16.30;6.50;;;5.50;99.90;;;;;;5048293;28;20676;-84
2022/12/03 06:37:24;;;;;;;14.57;6.17;;;5.50;99.90;;;;;;5018169;28;20412;-84
2022/12/03 06:39:49;;;;;;;15.50;6.35;;;5.50;99.90;;;;;;5015960;28;20487;-84
2022/12/03 06:42:15;;;;;;;13.83;6.30;;;5.50;99.90;;;;;;4979456;28;20036;-84
2022/12/03 06:44:40;;;;;;;14.27;6.07;;;5.50;99.90;;;;;;5027355;28;20025;-86
2022/12/03 06:47:06;;;;;;;12.93;5.20;;;5.50;99.90;;;;;;5028864;28;20873;-85
2022/12/03 06:49:32;;;;;;;16.13;6.57;;;5.50;99.90;;;;;;5028329;28;20591;-85
2022/12/03 06:51:57;;;;;;;18.90;7.50;;;5.50;99.90;;;;;;5017969;28;20474;-85
2022/12/03 06:54:23;;;;;;;16.70;6.90;;;5.50;99.90;;;;;;5017916;28;20157;-84
2022/12/03 06:56:49;;;;;;;14.68;6.35;;;5.50;99.90;;;;;;5025155;28;20123;-85
2022/12/03 06:59:14;;;;;;;14.47;6.27;;;5.50;99.90;;;;;;4999910;28;20098;-85
2022/12/03 07:01:40;;;;;;;17.38;6.72;;;5.50;99.90;;;;;;5022154;28;20054;-85
2022/12/03 07:04:06;;;;;;;18.60;7.43;;;5.50;99.90;;;;;;5024136;28;20025;-85
2022/12/03 07:06:31;;;;;;;14.93;7.37;;;5.50;99.90;;;;;;5053439;28;20689;-85
2022/12/03 07:08:57;;;;;;;13.93;5.97;;;5.50;99.90;;;;;;5042478;28;20009;-84
2022/12/03 07:11:31;;;;;;;15.97;6.40;;;5.50;99.90;;;;;;5013277;28;20022;-84
2022/12/03 07:14:01;;;;;;;16.08;7.15;;;5.50;99.90;;;;;;5001799;28;20036;-84
2022/12/03 07:16:27;;;;;;;15.13;6.57;;;5.60;99.90;;;;;;5031996;28;20043;-84
2022/12/03 07:18:53;;;;;;;14.30;5.80;;;5.50;99.90;;;;;;5013091;28;20587;-84
2022/12/03 07:21:19;;;;;;;15.82;6.32;;;5.50;99.90;;;;;;5031238;28;20018;-84
2022/12/03 07:23:45;;;;;;;13.90;6.10;;;5.60;99.90;;;;;;5025580;28;20030;-85
2022/12/03 07:26:10;;;;;;;17.33;6.77;;;5.50;99.90;;;;;;5031119;28;20714;-84
2022/12/03 07:28:36;;;;;;;17.80;6.70;;;5.60;99.90;;;;;;5020624;28;20987;-85
2022/12/03 07:31:02;;;;;;;16.40;6.87;;;5.60;99.90;;;;;;5003432;28;20414;-84
2022/12/03 07:33:27;;;;;;;16.63;6.80;;;5.50;99.90;;;;;;5016723;28;20033;-85
2022/12/03 07:35:53;;;;;;;14.43;6.07;;;5.60;99.90;;;;;;5016342;28;20385;-85
2022/12/03 07:38:18;;;;;;;14.40;6.63;;;5.60;99.90;;;;;;5024881;28;20382;-85
2022/12/03 07:40:44;;;;;;;16.40;6.90;;;5.60;99.90;;;;;;5008549;28;20067;-86
2022/12/03 07:43:10;;;;;;;19.53;7.77;;;5.60;99.90;;;;;;5013538;28;20052;-85
2022/12/03 07:45:35;;;;;;;18.38;7.30;;;5.60;99.90;;;;;;4992453;28;20116;-85
2022/12/03 07:48:01;;;;;;;15.63;6.80;;;5.60;99.90;;;;;;5019339;28;20086;-84
2022/12/03 07:50:27;;;;;;;18.20;7.38;;;5.60;99.90;;;;;;5029566;28;20405;-85
2022/12/03 07:52:53;;;;;;;17.50;7.33;;;5.60;99.90;;;;;;5041281;28;20480;-85
2022/12/03 07:55:19;;;;;;;16.58;6.78;;;5.60;99.90;;;;;;5054113;28;20049;-85
2022/12/03 07:57:45;;;;;;;16.17;7.10;;;5.60;99.90;;;;;;5014096;28;20047;-85
2022/12/03 08:00:11;;;;;;;16.35;6.72;;;5.60;99.90;;;;;;5015934;28;20806;-85
2022/12/03 08:02:36;;;;;;;16.17;6.97;;;5.60;99.90;;;;;;5024529;28;20033;-84
2022/12/03 08:05:02;;;;;;;17.50;6.67;;;5.60;99.90;;;;;;5028285;28;20025;-84
2022/12/03 08:07:28;;;;;;;17.50;7.70;;;5.60;99.90;;;;;;4991796;28;20025;-85
2022/12/03 08:09:54;;;;;;;20.03;8.10;;;5.60;99.90;;;;;;5027830;28;20022;-86
2022/12/03 08:12:40;;;;;;;17.33;7.05;;;5.60;99.90;;;;;;4997692;28;20021;-85
2022/12/03 08:15:16;;;;;;;18.50;7.10;;;5.60;99.90;;;;;;5033504;28;20029;-85
2022/12/03 08:17:50;;;;;;;17.80;7.05;;;5.60;99.90;;;;;;5015532;28;20072;-85
2022/12/03 08:20:18;;;;;;;18.03;7.17;;;5.60;99.90;;;;;;5027721;28;20033;-84
2022/12/03 08:22:46;;;;;;;19.30;7.75;;;5.60;99.90;;;;;;5008323;28;23609;-84
2022/12/03 08:25:21;;;;;;;16.48;6.53;;;5.70;99.90;;;;;;5025668;28;20120;-84
2022/12/03 08:27:47;;;;;;;17.40;7.38;;;5.70;99.90;;;;;;4996168;28;20448;-84
2022/12/03 08:30:14;;;;;;;20.17;7.90;;;5.70;99.90;;;;;;5005751;28;20074;-84
2022/12/03 08:32:40;;;;;;;18.37;7.27;;;5.70;99.90;;;;;;5003167;28;20280;-84
2022/12/03 08:35:18;;;;;;;20.73;8.70;;;5.70;99.90;;;;;;5025527;28;20054;-84
2022/12/03 08:37:43;;;;;;;21.65;8.50;;;5.70;99.90;;;;;;5031676;28;20028;-86
2022/12/03 08:40:27;;;;;;;17.77;7.17;;;5.70;99.90;;;;;;5030655;28;20535;-84
2022/12/03 08:42:53;;;;;;;15.50;6.63;;;5.70;99.90;;;;;;4992391;28;20828;-84
2022/12/03 08:45:27;;;;;;;18.33;7.85;;;5.80;99.90;;;;;;5021986;28;20025;-85
2022/12/03 08:47:57;;;;;;;16.27;7.20;;;5.80;99.90;;;;;;4993035;28;20025;-84
2022/12/03 08:50:28;;;;;;;18.40;7.50;;;5.80;99.90;;;;;;5013440;28;20245;-84
2022/12/03 08:53:07;;;;;;;14.13;6.38;;;5.80;99.90;;;;;;5034755;28;20133;-84
2022/12/03 08:55:38;;;;;;;18.23;7.70;;;5.80;99.90;;;;;;5040883;28;20525;-84
2022/12/03 08:58:31;;;;;;;17.65;6.97;;;5.90;99.90;;;;;;5010001;28;20022;-84
2022/12/03 09:01:05;;;;;;;17.07;7.30;;;5.90;99.90;;;;;;5027988;28;20033;-84
2022/12/03 09:03:31;;;;;;;17.17;6.80;;;5.90;99.90;;;;;;5031870;28;20048;-84
2022/12/03 09:05:57;;;;;;;15.45;6.90;;;5.90;99.90;;;;;;5031206;28;20033;-85
2022/12/03 09:08:22;;;;;;;19.23;7.33;;;6.00;99.90;;;;;;5013247;28;20095;-84
2022/12/03 09:10:48;;;;;;;15.32;6.90;;;6.00;99.90;;;;;;4999287;28;20118;-84
2022/12/03 09:13:14;;;;;;;15.77;6.00;;;6.00;99.90;;;;;;5018343;28;20033;-84
2022/12/03 09:15:39;;;;;;;16.63;7.13;;;6.10;99.90;;;;;;5011002;28;20016;-85
2022/12/03 09:18:05;;;;;;;19.43;7.60;;;6.10;99.90;;;;;;5008310;28;20566;-85
2022/12/03 09:20:31;;;;;;;15.63;7.43;;;6.20;99.90;;;;;;5041498;28;20511;-84
2022/12/03 09:22:56;;;;;;;16.87;7.63;;;6.10;99.90;;;;;;5015949;28;20034;-85
2022/12/03 09:25:22;;;;;;;14.97;6.10;;;6.10;99.90;;;;;;4992583;28;20048;-85
2022/12/03 09:27:48;;;;;;;18.47;7.70;;;6.20;99.90;;;;;;5036486;28;20365;-85
2022/12/03 09:30:15;;;;;;;17.60;6.70;;;6.20;99.90;;;;;;5007249;28;20020;-84
2022/12/03 09:32:40;;;;;;;17.92;7.22;;;6.20;99.90;;;;;;4984164;28;20262;-84
2022/12/03 09:35:07;;;;;;;16.17;7.17;;;6.20;99.90;;;;;;5018592;28;20047;-85
2022/12/03 09:37:32;;;;;;;12.77;5.45;;;6.20;99.90;;;;;;5024297;28;20124;-85
2022/12/03 09:39:58;;;;;;;18.13;8.03;;;6.20;99.90;;;;;;5032405;28;20092;-85
2022/12/03 09:42:24;;;;;;;16.08;7.07;;;6.30;99.90;;;;;;5041827;28;20120;-84
2022/12/03 09:44:51;;;;;;;16.80;7.10;;;6.30;99.90;;;;;;5027339;28;20071;-84
2022/12/03 09:47:17;;;;;;;17.55;7.20;;;6.30;99.90;;;;;;4985435;28;20394;-84
2022/12/03 09:49:43;;;;;;;16.58;6.93;;;6.40;99.90;;;;;;5000076;28;20391;-84
2022/12/03 09:52:22;;;;;;;17.30;7.10;;;6.40;99.90;;;;;;5015070;28;20013;-85
2022/12/03 09:54:48;;;;;;;16.92;7.28;;;6.40;99.90;;;;;;5011669;28;20034;-84
2022/12/03 09:57:15;;;;;;;17.53;7.50;;;6.40;99.90;;;;;;5041428;28;20021;-85
2022/12/03 09:59:41;;;;;;;18.48;7.25;;;6.50;99.90;;;;;;5014518;28;20422;-84
2022/12/03 10:02:21;;;;;;;16.02;6.43;;;6.50;99.90;;;;;;5017685;28;20036;-84
2022/12/03 10:04:48;;;;;;;17.30;7.05;;;6.50;99.90;;;;;;5001945;28;20506;-84
2022/12/03 10:07:13;;;;;;;14.87;6.13;;;6.50;99.90;;;;;;5027553;28;20112;-84
2022/12/03 10:09:39;;;;;;;15.57;7.35;;;6.50;99.90;;;;;;5031657;28;20248;-85
2022/12/03 10:12:08;;;;;;;16.60;6.53;;;6.60;99.90;;;;;;5025963;28;20071;-85
2022/12/03 10:14:34;;;;;;;17.47;6.83;;;6.60;99.90;;;;;;5029777;28;20029;-84
2022/12/03 10:16:59;;;;;;;18.92;8.45;;;6.60;99.90;;;;;;5014618;28;20456;-85
2022/12/03 10:19:28;;;;;;;22.23;9.27;;;6.60;99.90;;;;;;5003483;28;20025;-85
2022/12/03 10:21:54;;;;;;;20.77;8.65;;;6.70;99.90;;;;;;5013076;28;20266;-84
2022/12/03 10:24:31;;;;;;;18.05;7.85;;;6.70;99.90;;;;;;5018018;28;20044;-84
2022/12/03 10:27:00;;;;;;;18.42;7.80;;;6.70;99.90;;;;;;5009435;28;20137;-85
2022/12/03 10:29:31;;;;;;;17.10;7.43;;;6.70;99.90;;;;;;5013961;28;20049;-84
2022/12/03 10:32:06;;;;;;;15.77;6.97;;;6.80;99.90;;;;;;5027066;28;20112;-83
2022/12/03 10:34:34;;;;;;;19.65;7.63;;;6.80;99.90;;;;;;5013217;28;20023;-83
2022/12/03 10:37:20;;;;;;;20.80;8.50;;;6.90;99.90;;;;;;5041883;28;20112;-83
2022/12/03 10:40:07;;;;;;;19.67;8.05;;;6.90;99.90;;;;;;5006528;28;20038;-83
2022/12/03 10:42:35;;;;;;;15.53;6.90;;;6.90;99.90;;;;;;5028941;28;20793;-84
2022/12/03 10:45:12;;;;;;;17.42;7.88;;;6.90;99.90;;;;;;5036375;28;20021;-84
2022/12/03 10:47:38;;;;;;;14.23;6.35;;;6.90;99.90;;;;;;5015465;28;20045;-85
2022/12/03 10:50:13;;;;;;;14.47;6.73;;;6.90;99.90;;;;;;5000392;28;20567;-84
2022/12/03 10:52:39;;;;;;;15.20;7.50;;;6.90;99.90;;;;;;5026700;28;20670;-84
2022/12/03 10:55:05;;;;;;;16.73;7.40;;;7.00;99.90;;;;;;5036515;28;20184;-84
2022/12/03 10:57:31;;;;;;;13.93;6.70;;;7.00;99.90;;;;;;5031897;28;20025;-84
2022/12/03 10:59:57;;;;;;;15.27;7.33;;;7.00;99.90;;;;;;5026401;28;20053;-84
2022/12/03 11:02:24;;;;;;;16.95;7.20;;;7.00;99.90;;;;;;5041751;28;20037;-84
2022/12/03 11:04:50;;;;;;;19.90;8.40;;;7.00;99.90;;;;;;5001180;28;20025;-84
2022/12/03 11:07:20;;;;;;;16.52;7.78;;;7.00;99.90;;;;;;5032504;28;20358;-84
2022/12/03 11:09:48;;;;;;;17.02;7.70;;;7.10;99.90;;;;;;5039004;28;20063;-83
2022/12/03 11:12:24;;;;;;;17.47;7.50;;;7.10;99.90;;;;;;5013836;28;20317;-85
2022/12/03 11:14:50;;;;;;;19.42;8.13;;;7.10;99.90;;;;;;5018896;28;20404;-84
2022/12/03 11:17:48;;;;;;;20.48;8.95;;;7.10;99.90;;;;;;5012130;28;20086;-84
2022/12/03 11:20:19;;;;;;;14.87;6.43;;;7.10;99.90;;;;;;5002043;28;20124;-86
2022/12/03 11:22:47;;;;;;;16.98;7.15;;;7.10;99.90;;;;;;5006277;28;20025;-82
2022/12/03 11:25:43;;;;;;;17.77;7.70;;;7.10;99.90;;;;;;5033885;28;20048;-82
2022/12/03 11:28:12;;;;;;;17.60;7.05;;;7.10;99.90;;;;;;5017522;28;20019;-84
2022/12/03 11:30:50;;;;;;;15.90;6.85;;;7.00;99.90;;;;;;5021007;28;21016;-84
2022/12/03 11:33:26;;;;;;;15.90;6.70;;;7.00;99.90;;;;;;5040724;28;20328;-84
2022/12/03 11:36:04;;;;;;;18.55;7.80;;;7.00;99.90;;;;;;4986156;28;20113;-84
2022/12/03 11:38:39;;;;;;;17.52;7.85;;;7.00;99.90;;;;;;5016777;28;20545;-84
2022/12/03 11:41:24;;;;;;;19.23;8.52;;;7.00;99.90;;;;;;5002604;28;20298;-84
2022/12/03 11:43:55;;;;;;;18.17;7.88;;;6.90;99.90;;;;;;5017224;28;20356;-84
2022/12/03 11:46:29;;;;;;;15.70;7.10;;;6.90;99.90;;;;;;5026815;28;20033;-84
2022/12/03 11:48:57;;;;;;;20.60;8.63;;;6.90;99.90;;;;;;4989855;28;20037;-84
2022/12/03 11:51:26;;;;;;;18.33;7.78;;;6.90;99.90;;;;;;4982443;28;20131;-84
2022/12/03 11:53:55;;;;;;;17.00;6.57;;;6.90;99.90;;;;;;5032094;28;20037;-84
2022/12/03 11:56:26;;;;;;;15.18;6.57;;;6.90;99.90;;;;;;5011139;28;20036;-84
2022/12/03 11:59:03;;;;;;;17.00;7.77;;;6.90;99.90;;;;;;5011220;28;21313;-84
2022/12/03 12:01:34;;;;;;;16.80;7.30;;;6.90;99.90;;;;;;4996657;28;20368;-84
2022/12/03 12:04:00;;;;;;;22.08;9.50;;;6.90;99.90;;;;;;5059990;28;20512;-84
2022/12/03 12:06:25;;;;;;;18.03;8.03;;;6.90;99.90;;;;;;4988814;28;20580;-84
2022/12/03 12:08:51;;;;;;;16.42;7.93;;;6.90;99.90;;;;;;5028983;28;20044;-84
2022/12/03 12:11:28;;;;;;;15.63;6.80;;;6.80;99.90;;;;;;5029831;28;20051;-84
2022/12/03 12:13:58;;;;;;;16.90;7.38;;;6.90;99.90;;;;;;5011050;28;20493;-84
2022/12/03 12:17:02;;;;;;;16.70;7.72;;;6.90;99.90;;;;;;5042176;28;20764;-84
2022/12/03 12:19:40;;;;;;;15.60;6.82;;;7.00;99.90;;;;;;5035959;28;20692;-84
2022/12/03 12:22:14;;;;;;;22.35;9.27;;;7.00;99.90;;;;;;5025895;28;20037;-84
2022/12/03 12:24:45;;;;;;;20.50;8.77;;;7.00;99.90;;;;;;5023655;28;20071;-84
2022/12/03 12:27:11;;;;;;;18.80;7.68;;;7.00;99.90;;;;;;5027538;28;20442;-84
2022/12/03 12:29:39;;;;;;;16.70;7.20;;;7.00;99.90;;;;;;5001892;28;20227;-84
2022/12/03 12:32:07;;;;;;;15.70;7.47;;;7.00;99.90;;;;;;5027907;28;20515;-84
2022/12/03 12:34:35;;;;;;;16.30;7.00;;;7.00;99.90;;;;;;5024850;28;20292;-84
2022/12/03 12:37:02;;;;;;;13.85;6.05;;;7.00;99.90;;;;;;5049656;28;20017;-84
2022/12/03 12:39:30;;;;;;;19.73;9.13;;;7.00;99.90;;;;;;5010649;28;20052;-84
2022/12/03 12:41:57;;;;;;;16.50;6.93;;;7.00;99.90;;;;;;5024804;28;20026;-84
2022/12/03 12:44:22;;;;;;;14.10;5.97;;;6.90;99.90;;;;;;5014974;28;20486;-84
2022/12/03 12:46:51;;;;;;;19.67;8.20;;;6.90;99.90;;;;;;5041732;28;20359;-84
2022/12/03 12:49:21;;;;;;;17.33;7.55;;;6.90;99.90;;;;;;5058968;28;20402;-83
2022/12/03 12:51:49;;;;;;;16.17;6.90;;;6.90;99.90;;;;;;5011097;28;20456;-84
2022/12/03 12:54:16;;;;;;;16.17;7.05;;;6.80;99.90;;;;;;5001811;28;20251;-84
2022/12/03 12:56:44;;;;;;;14.60;6.65;;;6.80;99.90;;;;;;5038029;28;20041;-84
2022/12/03 12:59:13;;;;;;;13.40;5.90;;;6.80;99.90;;;;;;5026226;28;20022;-84
2022/12/03 13:01:40;;;;;;;13.55;6.30;;;6.80;99.90;;;;;;5008481;28;20033;-84
2022/12/03 13:04:14;;;;;;;16.77;6.90;;;6.80;99.90;;;;;;5027967;28;20021;-84
2022/12/03 13:06:40;;;;;;;14.93;5.25;;;6.80;99.90;;;;;;4998797;28;21012;-84
2022/12/03 13:09:24;;;;;;;15.82;6.50;;;6.80;99.90;;;;;;4993229;28;20106;-84
2022/12/03 13:11:56;;;;;;;13.57;6.43;;;6.90;99.90;;;;;;5060017;28;20056;-83
2022/12/03 13:14:23;;;;;;;12.30;5.50;;;6.80;99.90;;;;;;4999153;28;20571;-84